createdAt,value
2022-11-25T00:01:56.620Z,2.60
2022-11-25T00:04:24.796Z,2.47
2022-11-25T00:06:57.401Z,1.70
2022-11-25T00:09:25.751Z,1.90
2022-11-25T00:11:57.022Z,2.17
2022-11-25T00:14:25.500Z,2.20
2022-11-25T00:16:55.205Z,1.58
2022-11-25T00:21:51.463Z,1.88
2022-11-25T00:24:23.419Z,2.60
2022-11-25T00:26:51.514Z,1.50
2022-11-25T00:29:19.968Z,1.75
2022-11-25T00:31:48.122Z,1.70
2022-11-25T00:34:16.499Z,1.92
2022-11-25T00:36:47.850Z,1.42
2022-11-25T00:39:17.697Z,1.48
2022-11-25T00:42:05.790Z,2.35
2022-11-25T00:44:37.773Z,1.52
2022-11-25T00:47:09.940Z,1.77
2022-11-25T00:49:38.946Z,2.08
2022-11-25T00:52:08.115Z,1.10
2022-11-25T00:54:38.068Z,2.08
2022-11-25T00:57:08.056Z,1.35
2022-11-25T00:59:37.850Z,1.55
2022-11-25T01:02:06.308Z,1.42
2022-11-25T01:04:36.995Z,1.85
2022-11-25T01:07:06.045Z,1.42
2022-11-25T01:09:36.234Z,1.42
2022-11-25T01:12:07.143Z,2.47
2022-11-25T01:14:36.157Z,1.38
2022-11-25T01:17:05.189Z,1.55
2022-11-25T01:19:34.555Z,1.13
2022-11-25T01:22:02.697Z,1.33
2022-11-25T01:24:31.228Z,1.23
2022-11-25T01:27:00.881Z,1.17
2022-11-25T01:29:30.422Z,1.90
2022-11-25T01:31:58.948Z,1.98
2022-11-25T01:34:32.505Z,1.13
2022-11-25T01:37:01.106Z,1.52
2022-11-25T01:39:32.783Z,1.13
2022-11-25T01:42:01.965Z,1.05
2022-11-25T01:44:32.615Z,0.93
2022-11-25T01:47:10.402Z,1.73
2022-11-25T01:49:45.602Z,1.15
2022-11-25T01:52:19.228Z,1.63
2022-11-25T01:54:56.310Z,1.40
2022-11-25T01:57:29.194Z,1.23
2022-11-25T02:00:01.873Z,1.30
2022-11-25T02:02:33.318Z,1.02
2022-11-25T02:05:02.692Z,1.60
2022-11-25T02:07:35.961Z,1.13
2022-11-25T02:10:08.608Z,1.17
2022-11-25T02:12:41.863Z,1.52
2022-11-25T02:15:14.093Z,1.67
2022-11-25T02:17:45.187Z,1.30
2022-11-25T02:20:16.005Z,1.75
2022-11-25T02:22:58.910Z,1.45
2022-11-25T02:25:31.209Z,1.73
2022-11-25T02:28:03.233Z,1.88
2022-11-25T02:30:31.703Z,1.63
2022-11-25T02:33:01.825Z,1.55
2022-11-25T02:35:34.417Z,2.28
2022-11-25T02:38:09.867Z,2.13
2022-11-25T02:40:44.499Z,1.70
2022-11-25T02:43:13.660Z,1.95
2022-11-25T02:45:53.723Z,1.83
2022-11-25T02:48:39.819Z,1.73
2022-11-25T02:51:13.335Z,2.30
2022-11-25T02:53:41.860Z,1.67
2022-11-25T02:56:13.964Z,1.83
2022-11-25T02:58:44.068Z,2.28
2022-11-25T03:01:13.813Z,1.83
2022-11-25T03:03:42.244Z,2.55
2022-11-25T03:06:12.392Z,2.47
2022-11-25T03:08:40.513Z,2.20
2022-11-25T03:11:19.551Z,2.55
2022-11-25T03:13:49.350Z,1.60
2022-11-25T03:16:19.561Z,1.98
2022-11-25T03:21:18.504Z,2.05
2022-11-25T03:23:48.294Z,1.40
2022-11-25T03:26:23.072Z,2.20
2022-11-25T03:28:51.584Z,2.15
2022-11-25T03:31:20.423Z,2.40
2022-11-25T03:33:49.025Z,2.22
2022-11-25T03:36:19.525Z,2.10
2022-11-25T03:38:50.429Z,2.35
2022-11-25T03:41:21.082Z,1.58
2022-11-25T03:43:50.049Z,2.67
2022-11-25T03:46:19.035Z,2.03
2022-11-25T03:48:47.970Z,1.63
2022-11-25T03:51:16.842Z,2.13
2022-11-25T03:56:15.731Z,1.80
2022-11-25T03:58:45.204Z,1.75
2022-11-25T04:01:14.866Z,1.30
2022-11-25T04:03:48.191Z,1.70
2022-11-25T04:06:20.135Z,2.33
2022-11-25T04:08:54.512Z,1.70
2022-11-25T04:11:43.159Z,1.70
2022-11-25T04:14:13.267Z,1.27
2022-11-25T04:16:41.949Z,1.77
2022-11-25T04:19:10.475Z,1.58
2022-11-25T04:21:39.238Z,1.95
2022-11-25T04:24:08.420Z,1.60
2022-11-25T04:26:36.623Z,1.60
2022-11-25T04:29:07.339Z,1.30
2022-11-25T04:31:39.926Z,2.25
2022-11-25T04:34:08.898Z,2.13
2022-11-25T04:36:37.205Z,1.95
2022-11-25T04:39:06.945Z,1.80
2022-11-25T04:41:36.527Z,1.35
2022-11-25T04:44:04.955Z,1.58
2022-11-25T04:46:39.328Z,1.60
2022-11-25T04:49:12.397Z,1.48
2022-11-25T04:51:43.327Z,2.30
2022-11-25T04:54:17.471Z,1.75
2022-11-25T04:56:47.695Z,1.23
2022-11-25T04:59:35.801Z,1.40
2022-11-25T05:02:09.643Z,1.73
2022-11-25T05:04:42.205Z,1.63
2022-11-25T05:07:12.639Z,1.52
2022-11-25T05:09:41.917Z,1.75
2022-11-25T05:12:20.118Z,2.03
2022-11-25T05:14:54.543Z,1.75
2022-11-25T05:17:30.387Z,1.75
2022-11-25T05:20:01.600Z,1.63
2022-11-25T05:22:35.619Z,2.05
2022-11-25T05:25:06.882Z,1.23
2022-11-25T05:27:40.238Z,1.55
2022-11-25T05:30:12.488Z,1.10
2022-11-25T05:32:44.178Z,1.02
2022-11-25T05:35:14.529Z,1.63
2022-11-25T05:37:43.968Z,1.63
2022-11-25T05:40:12.955Z,1.98
2022-11-25T05:42:57.377Z,1.27
2022-11-25T05:45:26.546Z,2.58
2022-11-25T05:47:56.531Z,1.38
2022-11-25T05:50:29.372Z,1.10
2022-11-25T05:53:17.522Z,1.77
2022-11-25T05:55:56.440Z,1.48
2022-11-25T05:58:46.040Z,1.20
2022-11-25T06:01:23.338Z,1.25
2022-11-25T06:03:52.608Z,2.10
2022-11-25T06:06:25.798Z,1.65
2022-11-25T06:08:54.567Z,1.27
2022-11-25T06:11:27.542Z,0.98
2022-11-25T06:13:57.991Z,1.55
2022-11-25T06:16:30.438Z,0.98
2022-11-25T06:19:12.484Z,1.23
2022-11-25T06:21:43.007Z,1.33
2022-11-25T06:24:12.097Z,1.58
2022-11-25T06:26:42.373Z,1.40
2022-11-25T06:29:12.517Z,1.17
2022-11-25T06:31:45.216Z,1.83
2022-11-25T06:34:34.734Z,1.25
2022-11-25T06:37:08.151Z,1.95
2022-11-25T06:39:38.537Z,1.90
2022-11-25T06:42:06.989Z,1.73
2022-11-25T06:44:35.442Z,1.45
2022-11-25T06:47:05.909Z,1.80
2022-11-25T06:49:34.493Z,1.60
2022-11-25T06:52:03.117Z,1.77
2022-11-25T06:54:33.325Z,2.30
2022-11-25T06:57:01.925Z,2.13
2022-11-25T06:59:31.843Z,2.25
2022-11-25T07:02:00.507Z,2.28
2022-11-25T07:04:29.357Z,2.00
2022-11-25T07:06:57.804Z,2.65
2022-11-25T07:09:27.376Z,1.98
2022-11-25T07:11:59.854Z,1.67
2022-11-25T07:14:30.550Z,1.70
2022-11-25T07:16:58.767Z,1.85
2022-11-25T07:19:33.854Z,1.90
2022-11-25T07:22:04.602Z,1.55
2022-11-25T07:24:34.370Z,1.38
2022-11-25T07:27:09.075Z,2.13
2022-11-25T07:30:03.162Z,2.70
2022-11-25T07:32:33.329Z,2.78
2022-11-25T07:35:03.833Z,1.33
2022-11-25T07:37:31.964Z,2.35
2022-11-25T07:40:12.358Z,0.93
2022-11-25T07:42:42.135Z,1.48
2022-11-25T07:45:11.505Z,1.60
2022-11-25T07:47:46.149Z,1.45
2022-11-25T07:50:16.575Z,1.23
2022-11-25T07:52:46.493Z,2.03
2022-11-25T07:55:17.609Z,1.50
2022-11-25T07:57:47.825Z,1.97
2022-11-25T08:00:17.154Z,2.30
2022-11-25T08:02:45.888Z,2.30
2022-11-25T08:05:17.339Z,1.20
2022-11-25T08:07:45.874Z,1.58
2022-11-25T08:10:14.231Z,2.83
2022-11-25T08:12:42.652Z,1.30
2022-11-25T08:15:15.548Z,1.55
2022-11-25T08:17:45.258Z,1.58
2022-11-25T08:20:14.498Z,1.38
2022-11-25T08:22:42.908Z,1.40
2022-11-25T08:25:12.747Z,1.58
2022-11-25T08:27:44.655Z,1.63
2022-11-25T08:30:18.855Z,1.55
2022-11-25T08:32:47.772Z,1.40
2022-11-25T08:35:17.535Z,1.45
2022-11-25T08:37:47.810Z,0.98
2022-11-25T08:40:16.884Z,1.45
2022-11-25T08:42:46.579Z,1.73
2022-11-25T08:47:45.501Z,1.45
2022-11-25T08:50:16.338Z,1.80
2022-11-25T08:52:45.993Z,2.30
2022-11-25T08:55:16.002Z,1.40
2022-11-25T09:02:50.718Z,1.80
2022-11-25T09:05:19.271Z,1.55
2022-11-25T09:10:18.358Z,1.35
2022-11-25T09:12:46.911Z,1.20
2022-11-25T09:15:18.293Z,1.73
2022-11-25T09:17:48.314Z,1.45
2022-11-25T09:20:17.660Z,2.20
2022-11-25T09:22:46.180Z,1.67
2022-11-25T09:25:17.949Z,1.33
2022-11-25T09:27:46.409Z,1.20
2022-11-25T09:30:22.203Z,1.77
2022-11-25T09:32:56.419Z,1.13
2022-11-25T09:35:29.176Z,1.52
2022-11-25T09:37:57.417Z,1.35
2022-11-25T09:40:35.701Z,1.67
2022-11-25T09:43:35.315Z,0.88
2022-11-25T09:46:33.956Z,1.40
2022-11-25T09:49:18.414Z,1.88
2022-11-25T09:51:58.246Z,1.20
2022-11-25T09:54:37.609Z,1.60
2022-11-25T09:57:22.736Z,1.75
2022-11-25T10:00:03.345Z,1.52
2022-11-25T10:02:46.577Z,1.73
2022-11-25T10:05:22.307Z,1.10
2022-11-25T10:07:57.926Z,1.50
2022-11-25T10:10:29.642Z,1.27
2022-11-25T10:13:00.419Z,0.90
2022-11-25T10:15:33.791Z,1.25
2022-11-25T10:18:12.017Z,2.80
2022-11-25T10:20:44.135Z,1.65
2022-11-25T10:23:27.646Z,1.67
2022-11-25T10:26:03.568Z,1.25
2022-11-25T10:28:34.796Z,1.80
2022-11-25T10:31:07.998Z,2.03
2022-11-25T10:33:46.939Z,2.15
2022-11-25T10:36:20.171Z,1.40
2022-11-25T10:38:57.606Z,1.83
2022-11-25T10:44:00.166Z,2.50
2022-11-25T10:47:11.771Z,1.80
2022-11-25T10:49:39.348Z,1.95
2022-11-25T10:52:41.828Z,1.42
2022-11-25T10:55:15.588Z,2.20
2022-11-25T10:57:44.914Z,1.42
2022-11-25T11:00:30.427Z,1.92
2022-11-25T11:03:00.704Z,1.73
2022-11-25T11:05:32.198Z,1.58
2022-11-25T11:08:11.185Z,1.77
2022-11-25T11:10:40.187Z,1.77
2022-11-25T11:13:22.680Z,1.87
2022-11-25T11:15:51.858Z,1.40
2022-11-25T11:18:29.808Z,1.35
2022-11-25T11:21:02.602Z,1.77
2022-11-25T11:23:53.224Z,2.38
2022-11-25T11:26:28.861Z,1.27
2022-11-25T11:29:11.193Z,1.85
2022-11-25T11:31:48.405Z,1.75
2022-11-25T11:34:44.027Z,1.52
2022-11-25T11:37:26.876Z,1.40
2022-11-25T11:40:04.170Z,1.73
2022-11-25T11:42:44.708Z,1.58
2022-11-25T11:45:28.650Z,1.88
2022-11-25T11:48:15.098Z,1.88
2022-11-25T11:50:48.802Z,2.00
2022-11-25T11:53:30.260Z,1.05
2022-11-25T11:59:09.745Z,2.25
2022-11-25T12:01:50.487Z,1.70
2022-11-25T12:04:28.875Z,1.33
2022-11-25T12:07:06.312Z,1.35
2022-11-25T12:09:46.774Z,2.00
2022-11-25T12:14:52.556Z,1.83
2022-11-25T12:17:29.533Z,1.67
2022-11-25T12:20:07.897Z,1.75
2022-11-25T12:22:44.895Z,1.55
2022-11-25T12:25:21.307Z,1.80
2022-11-25T12:27:59.293Z,1.63
2022-11-25T12:30:38.572Z,1.80
2022-11-25T12:33:13.896Z,1.25
2022-11-25T12:35:50.632Z,2.00
2022-11-25T12:38:30.245Z,1.23
2022-11-25T12:41:13.628Z,2.08
2022-11-25T12:43:49.851Z,1.50
2022-11-25T12:46:30.345Z,2.65
2022-11-25T12:49:00.106Z,2.38
2022-11-25T12:54:26.172Z,2.92
2022-11-25T12:57:21.923Z,1.48
2022-11-25T13:00:39.135Z,1.55
2022-11-25T13:03:28.117Z,1.73
2022-11-25T13:06:16.245Z,1.60
2022-11-25T13:08:58.476Z,1.80
2022-11-25T13:11:51.979Z,1.95
2022-11-25T13:14:29.531Z,2.00
2022-11-25T13:17:02.151Z,2.65
2022-11-25T13:19:37.089Z,1.35
2022-11-25T13:22:07.194Z,1.77
2022-11-25T13:24:41.503Z,1.65
2022-11-25T13:27:31.697Z,1.92
2022-11-25T13:30:04.429Z,2.45
2022-11-25T13:32:41.464Z,1.95
2022-11-25T13:35:38.310Z,3.13
2022-11-25T13:38:34.006Z,2.30
2022-11-25T13:41:04.712Z,2.25
2022-11-25T13:43:35.931Z,1.60
2022-11-25T13:46:06.993Z,2.33
2022-11-25T13:48:37.918Z,2.25
2022-11-25T13:51:19.704Z,1.83
2022-11-25T13:53:54.929Z,1.77
2022-11-25T13:56:31.542Z,2.08
2022-11-25T13:59:38.172Z,1.88
2022-11-25T14:02:41.828Z,2.75
2022-11-25T14:05:42.519Z,1.48
2022-11-25T14:08:23.087Z,1.98
2022-11-25T14:11:35.668Z,2.08
2022-11-25T14:14:23.741Z,1.77
2022-11-25T14:17:24.682Z,2.60
2022-11-25T14:20:13.012Z,2.13
2022-11-25T14:23:04.774Z,1.53
2022-11-25T14:25:44.263Z,2.10
2022-11-25T14:28:26.007Z,1.88
2022-11-25T14:31:00.954Z,1.75
2022-11-25T14:33:35.645Z,2.15
2022-11-25T14:36:12.146Z,2.30
2022-11-25T14:38:46.645Z,2.15
2022-11-25T14:41:33.370Z,1.75
2022-11-25T14:44:32.159Z,3.10
2022-11-25T14:47:05.925Z,1.70
2022-11-25T14:50:05.101Z,2.63
2022-11-25T14:52:43.864Z,1.70
2022-11-25T14:55:13.984Z,2.35
2022-11-25T14:57:46.480Z,2.20
2022-11-25T15:00:18.435Z,2.03
2022-11-25T15:02:57.240Z,2.00
2022-11-25T15:05:33.464Z,2.00
2022-11-25T15:08:11.808Z,1.88
2022-11-25T15:10:46.889Z,1.70
2022-11-25T15:13:28.287Z,1.65
2022-11-25T15:16:03.683Z,1.85
2022-11-25T15:18:34.875Z,2.08
2022-11-25T15:21:04.311Z,2.03
2022-11-25T15:23:41.298Z,1.85
2022-11-25T15:26:19.843Z,1.92
2022-11-25T15:28:49.673Z,3.20
2022-11-25T15:31:21.812Z,2.08
2022-11-25T15:33:57.438Z,2.17
2022-11-25T15:36:30.762Z,3.00
2022-11-25T15:39:16.872Z,2.83
2022-11-25T15:41:48.473Z,2.90
2022-11-25T15:44:24.637Z,2.70
2022-11-25T15:47:00.941Z,1.70
2022-11-25T15:49:32.564Z,1.95
2022-11-25T15:52:06.960Z,2.25
2022-11-25T15:54:44.074Z,2.60
2022-11-25T15:57:17.946Z,2.63
2022-11-25T15:59:53.008Z,2.00
2022-11-25T16:02:34.353Z,1.83
2022-11-25T16:05:31.626Z,1.80
2022-11-25T16:08:25.192Z,3.08
2022-11-25T16:10:59.369Z,3.00
2022-11-25T16:13:39.635Z,2.72
2022-11-25T16:16:20.948Z,2.35
2022-11-25T16:19:05.093Z,2.45
2022-11-25T16:21:45.973Z,1.83
2022-11-25T16:24:47.360Z,2.35
2022-11-25T16:27:21.089Z,2.13
2022-11-25T16:29:54.226Z,2.72
2022-11-25T16:32:24.428Z,2.97
2022-11-25T16:34:56.209Z,2.47
2022-11-25T16:37:25.426Z,2.33
2022-11-25T16:39:55.268Z,2.67
2022-11-25T16:42:27.057Z,3.47
2022-11-25T16:45:01.496Z,2.67
2022-11-25T16:47:29.899Z,2.22
2022-11-25T16:49:58.147Z,2.58
2022-11-25T16:52:26.638Z,3.55
2022-11-25T16:55:02.224Z,2.20
2022-11-25T16:57:31.952Z,2.45
2022-11-25T17:02:31.748Z,2.35
2022-11-25T17:05:02.365Z,5.00
2022-11-25T17:07:33.844Z,8.48
2022-11-25T17:10:06.813Z,4.35
2022-11-25T17:12:39.596Z,4.53
2022-11-25T17:15:15.121Z,3.03
2022-11-25T17:17:44.393Z,2.85
2022-11-25T17:20:16.946Z,3.28
2022-11-25T17:22:45.513Z,2.45
2022-11-25T17:25:17.474Z,2.97
2022-11-25T17:27:50.084Z,2.10
2022-11-25T17:30:23.052Z,2.63
2022-11-25T17:33:00.103Z,3.80
2022-11-25T17:35:28.821Z,2.30
2022-11-25T17:38:14.466Z,2.60
2022-11-25T17:40:44.970Z,2.53
2022-11-25T17:43:19.085Z,2.55
2022-11-25T17:45:51.280Z,2.20
2022-11-25T17:48:21.855Z,2.13
2022-11-25T17:50:52.629Z,1.83
2022-11-25T17:53:21.821Z,2.95
2022-11-25T17:55:54.180Z,2.20
2022-11-25T17:58:25.202Z,2.88
2022-11-25T18:00:53.976Z,2.90
2022-11-25T18:03:22.243Z,3.97
2022-11-25T18:05:51.464Z,4.00
2022-11-25T18:08:20.918Z,3.10
2022-11-25T18:10:50.383Z,3.42
2022-11-25T18:13:22.143Z,3.13
2022-11-25T18:15:52.111Z,3.00
2022-11-25T18:18:23.025Z,2.85
2022-11-25T18:20:52.982Z,3.20
2022-11-25T18:25:50.031Z,3.92
2022-11-25T18:28:22.107Z,4.43
2022-11-25T18:30:57.142Z,4.53
2022-11-25T18:33:26.092Z,3.85
2022-11-25T18:35:54.507Z,4.10
2022-11-25T18:38:25.739Z,3.85
2022-11-25T18:40:59.367Z,2.95
2022-11-25T18:43:29.752Z,2.45
2022-11-25T18:46:00.961Z,3.08
2022-11-25T18:48:29.315Z,2.90
2022-11-25T18:51:02.600Z,2.88
2022-11-25T18:53:31.013Z,3.00
2022-11-25T18:56:03.669Z,2.20
2022-11-25T19:01:07.579Z,2.75
2022-11-25T19:03:38.457Z,2.63
2022-11-25T19:06:21.913Z,2.63
2022-11-25T19:08:53.817Z,2.58
2022-11-25T19:11:30.995Z,2.75
2022-11-25T19:14:08.870Z,2.45
2022-11-25T19:16:40.369Z,3.05
2022-11-25T19:19:15.711Z,2.75
2022-11-25T19:21:45.758Z,3.08
2022-11-25T19:24:24.766Z,2.10
2022-11-25T19:26:55.653Z,4.03
2022-11-25T19:29:30.706Z,3.47
2022-11-25T19:32:05.185Z,2.85
2022-11-25T19:34:36.890Z,3.53
2022-11-25T19:37:05.754Z,3.10
2022-11-25T19:39:51.370Z,2.92
2022-11-25T19:42:20.459Z,3.00
2022-11-25T19:44:53.085Z,3.83
2022-11-25T19:47:27.395Z,2.70
2022-11-25T19:50:00.124Z,2.75
2022-11-25T19:52:38.319Z,2.80
2022-11-25T19:55:15.116Z,3.13
2022-11-25T19:57:44.098Z,2.50
2022-11-25T20:00:17.008Z,2.83
2022-11-25T20:02:49.689Z,2.90
2022-11-25T20:05:21.601Z,3.63
2022-11-25T20:07:51.404Z,2.92
2022-11-25T20:10:23.247Z,3.35
2022-11-25T20:12:55.345Z,2.72
2022-11-25T20:15:24.555Z,2.50
2022-11-25T20:17:56.828Z,3.33
2022-11-25T20:20:28.652Z,3.28
2022-11-25T20:23:02.997Z,2.60
2022-11-25T20:25:37.593Z,2.70
2022-11-25T20:28:16.258Z,3.08
2022-11-25T20:30:49.437Z,3.13
2022-11-25T20:33:26.297Z,3.25
2022-11-25T20:36:06.728Z,2.60
2022-11-25T20:38:39.286Z,3.42
2022-11-25T20:41:08.884Z,2.83
2022-11-25T20:43:41.302Z,3.78
2022-11-25T20:46:18.437Z,2.58
2022-11-25T20:48:48.888Z,2.13
2022-11-25T20:51:20.776Z,3.03
2022-11-25T20:53:51.330Z,2.70
2022-11-25T20:56:23.003Z,2.70
2022-11-25T20:58:51.277Z,3.33
2022-11-25T21:01:20.365Z,3.35
2022-11-25T21:03:51.046Z,3.63
2022-11-25T21:06:22.262Z,3.05
2022-11-25T21:08:53.760Z,3.30
2022-11-25T21:11:24.072Z,3.35
2022-11-25T21:13:57.023Z,3.03
2022-11-25T21:16:27.437Z,3.85
2022-11-25T21:18:57.122Z,3.45
2022-11-25T21:21:33.663Z,3.47
2022-11-25T21:24:19.682Z,3.08
2022-11-25T21:26:48.224Z,3.00
2022-11-25T21:29:18.373Z,3.38
2022-11-25T21:31:47.008Z,3.20
2022-11-25T21:34:17.687Z,3.13
2022-11-25T21:41:54.199Z,3.75
2022-11-25T21:44:29.810Z,2.92
2022-11-25T21:47:00.983Z,3.05
2022-11-25T21:49:32.058Z,3.58
2022-11-25T21:52:00.270Z,3.58
2022-11-25T21:54:28.474Z,2.97
2022-11-25T21:57:00.586Z,3.42
2022-11-25T21:59:31.249Z,2.97
2022-11-25T22:02:00.880Z,3.42
2022-11-25T22:04:31.249Z,3.35
2022-11-25T22:06:59.643Z,4.00
2022-11-25T22:09:29.037Z,3.22
2022-11-25T22:12:00.164Z,3.78
2022-11-25T22:14:37.517Z,3.90
2022-11-25T22:17:11.224Z,3.40
2022-11-25T22:19:41.892Z,3.33
2022-11-25T22:22:13.482Z,3.42
2022-11-25T22:24:43.003Z,2.60
2022-11-25T22:27:23.993Z,3.08
2022-11-25T22:29:55.974Z,2.78
2022-11-25T22:32:25.787Z,3.22
2022-11-25T22:34:55.974Z,3.30
2022-11-25T22:39:54.234Z,2.87
2022-11-25T22:42:27.342Z,2.50
2022-11-25T22:44:57.286Z,2.55
2022-11-25T22:47:29.870Z,2.45
2022-11-25T22:50:09.529Z,2.70
2022-11-25T22:52:39.916Z,2.35
2022-11-25T22:55:19.364Z,3.28
2022-11-25T22:57:51.816Z,3.10
2022-11-25T23:00:22.587Z,3.15
2022-11-25T23:02:54.317Z,2.03
2022-11-25T23:05:34.070Z,2.58
2022-11-25T23:08:03.074Z,3.13
2022-11-25T23:10:32.710Z,2.03
2022-11-25T23:15:37.263Z,3.00
2022-11-25T23:18:14.924Z,3.03
2022-11-25T23:20:50.788Z,2.53
2022-11-25T23:23:25.273Z,3.03
2022-11-25T23:25:55.382Z,2.53
2022-11-25T23:28:27.958Z,1.95
2022-11-25T23:30:59.931Z,1.58
2022-11-25T23:33:31.538Z,2.65
2022-11-25T23:36:08.695Z,2.58
2022-11-25T23:38:42.654Z,2.47
2022-11-25T23:41:15.472Z,2.63
2022-11-25T23:44:06.790Z,2.83
2022-11-25T23:46:37.172Z,3.33
2022-11-25T23:49:08.246Z,3.13
2022-11-25T23:51:40.544Z,3.05
2022-11-25T23:54:15.057Z,3.15
2022-11-25T23:56:43.965Z,2.92
2022-11-25T23:59:15.696Z,3.28
